Time;durP1;ratioP1;P1;durP2;ratioP2;P2;SDS_P1;SDS_P2;PMS_P1;PMS_P2;Temp;Humidity;BMP_temperature;BMP_pressure;BME280_temperature;BME280_humidity;BME280_pressure;Samples;Min_cycle;Max_cycle;Signal;HPM_P1;HPM_P2
2023/01/30 00:00:25;;;;;;;6.03;5.40;;;15.10;57.00;;;;;;5119880;27;20192;-45
2023/01/30 00:02:54;;;;;;;7.33;6.63;;;15.10;57.00;;;;;;5111536;28;20288;-44
2023/01/30 00:05:25;;;;;;;7.53;6.60;;;15.10;57.00;;;;;;5093159;28;20204;-44
2023/01/30 00:07:57;;;;;;;7.77;6.20;;;15.10;57.00;;;;;;5109942;28;20193;-44
2023/01/30 00:10:28;;;;;;;6.80;6.10;;;15.10;57.20;;;;;;5104053;27;20229;-44
2023/01/30 00:12:59;;;;;;;7.10;6.40;;;15.10;57.10;;;;;;5109292;28;20196;-45
2023/01/30 00:15:31;;;;;;;6.80;5.80;;;15.10;57.20;;;;;;5116230;27;20203;-44
2023/01/30 00:18:00;;;;;;;6.77;5.97;;;15.00;57.20;;;;;;5095123;28;20204;-45
2023/01/30 00:20:31;;;;;;;6.93;5.87;;;15.00;57.20;;;;;;5112894;27;20613;-45
2023/01/30 00:22:59;;;;;;;6.63;6.00;;;15.00;57.30;;;;;;5089984;28;20621;-45
2023/01/30 00:25:28;;;;;;;6.13;5.47;;;15.00;57.30;;;;;;5086952;28;20212;-45
2023/01/30 00:28:01;;;;;;;6.77;6.07;;;15.00;57.30;;;;;;5091904;28;20289;-45
2023/01/30 00:30:35;;;;;;;6.27;5.60;;;15.00;57.20;;;;;;5124371;27;20211;-44
2023/01/30 00:33:04;;;;;;;7.00;6.30;;;15.00;57.40;;;;;;5116456;27;20228;-44
2023/01/30 00:35:36;;;;;;;7.07;6.37;;;15.00;58.00;;;;;;5108330;28;20215;-44
2023/01/30 00:38:18;;;;;;;6.70;6.07;;;15.00;57.40;;;;;;5083096;28;20207;-44
2023/01/30 00:40:49;;;;;;;8.43;6.27;;;15.00;57.40;;;;;;5111435;27;20200;-45
2023/01/30 00:49:19;;;;;;;6.97;5.53;;;14.90;57.50;;;;;;5109431;28;20191;-45
2023/01/30 00:51:51;;;;;;;7.00;6.30;;;14.90;57.50;;;;;;5091338;28;20204;-44
2023/01/30 00:54:20;;;;;;;6.33;5.73;;;14.90;57.60;;;;;;5112909;27;20207;-45
2023/01/30 00:56:51;;;;;;;6.90;5.63;;;14.90;57.60;;;;;;5121888;27;20200;-45
2023/01/30 00:59:25;;;;;;;7.13;6.27;;;14.90;57.70;;;;;;5088838;28;20668;-45
2023/01/30 01:01:56;;;;;;;6.83;6.10;;;14.90;57.70;;;;;;5091028;28;20189;-45
2023/01/30 01:04:26;;;;;;;7.00;6.10;;;14.90;57.70;;;;;;5108970;28;20218;-45
2023/01/30 01:06:56;;;;;;;6.87;5.67;;;14.80;57.70;;;;;;5091429;28;20189;-45
2023/01/30 01:09:28;;;;;;;6.87;6.27;;;14.80;57.70;;;;;;5112560;28;20613;-44
2023/01/30 01:11:58;;;;;;;6.90;5.50;;;14.80;57.80;;;;;;5105187;28;20212;-44
2023/01/30 01:14:29;;;;;;;6.63;5.93;;;14.80;57.80;;;;;;5088571;28;20652;-44
2023/01/30 01:16:59;;;;;;;6.73;5.33;;;14.80;57.70;;;;;;5090817;28;20196;-45
2023/01/30 01:19:31;;;;;;;5.97;5.27;;;14.80;57.80;;;;;;5103183;28;20196;-44
2023/01/30 01:22:05;;;;;;;5.57;5.07;;;14.90;57.80;;;;;;5107367;28;20195;-44
2023/01/30 01:24:33;;;;;;;6.87;5.23;;;14.80;57.80;;;;;;5103822;28;20216;-45
2023/01/30 01:27:03;;;;;;;5.90;5.27;;;14.90;57.90;;;;;;5109191;28;20188;-44
2023/01/30 01:29:35;;;;;;;7.30;5.20;;;14.80;57.90;;;;;;5073652;28;20193;-44
2023/01/30 01:32:03;;;;;;;5.90;5.10;;;14.80;57.90;;;;;;5112094;28;20711;-44
2023/01/30 01:34:37;;;;;;;6.60;4.90;;;14.80;57.90;;;;;;5106415;28;20191;-44
2023/01/30 01:37:09;;;;;;;5.53;4.93;;;14.80;58.00;;;;;;5117571;28;20202;-44
2023/01/30 01:42:29;;;;;;;4.83;4.33;;;14.80;58.00;;;;;;5109709;27;20253;-44
2023/01/30 01:45:24;;;;;;;6.37;5.77;;;14.80;58.10;;;;;;5096495;28;20520;-45
2023/01/30 01:48:17;;;;;;;5.90;5.40;;;14.80;58.10;;;;;;5107665;27;20192;-45
2023/01/30 01:50:54;;;;;;;5.73;5.03;;;14.80;58.20;;;;;;5111167;28;20177;-44
2023/01/30 01:53:38;;;;;;;5.57;5.03;;;14.80;58.30;;;;;;5099132;28;20687;-44
2023/01/30 01:56:22;;;;;;;5.83;4.30;;;14.80;58.20;;;;;;5087859;28;20641;-44
2023/01/30 01:59:01;;;;;;;6.03;5.37;;;14.80;58.10;;;;;;5110220;28;20611;-44
2023/01/30 02:01:32;;;;;;;4.93;4.47;;;14.80;58.20;;;;;;5094887;28;20199;-45
2023/01/30 02:05:00;;;;;;;5.50;4.77;;;14.80;58.20;;;;;;5113106;27;20196;-44
2023/01/30 02:07:11;;;;;;;5.10;4.60;;;14.80;58.20;;;;;;5115133;27;20232;-44
2023/01/30 02:09:43;;;;;;;5.40;4.83;;;14.70;58.30;;;;;;5112119;28;20196;-44
2023/01/30 02:12:14;;;;;;;5.20;4.67;;;14.70;58.30;;;;;;5113257;27;20208;-45
2023/01/30 02:14:45;;;;;;;5.90;5.30;;;14.70;58.20;;;;;;5090972;28;20204;-45
2023/01/30 02:17:19;;;;;;;5.67;4.50;;;14.80;58.30;;;;;;5101236;27;20188;-45
2023/01/30 02:20:13;;;;;;;5.23;4.73;;;14.70;58.30;;;;;;5111496;28;20199;-44
2023/01/30 02:23:17;;;;;;;6.53;4.70;;;14.80;58.40;;;;;;5089754;28;20645;-44
2023/01/30 02:26:26;;;;;;;5.23;4.73;;;14.70;58.90;;;;;;5104160;28;20219;-45
2023/01/30 02:29:10;;;;;;;4.83;4.33;;;14.70;58.30;;;;;;5111552;27;20192;-45
2023/01/30 02:32:14;;;;;;;4.80;4.17;;;14.70;58.40;;;;;;5118024;27;20224;-44
2023/01/30 02:35:21;;;;;;;4.53;4.13;;;14.70;58.40;;;;;;5106002;28;20683;-45
2023/01/30 02:38:26;;;;;;;4.80;4.33;;;14.70;58.50;;;;;;5111867;27;20229;-44
2023/01/30 02:41:40;;;;;;;5.03;4.53;;;14.70;58.40;;;;;;5120169;27;20180;-45
2023/01/30 02:44:51;;;;;;;4.23;3.83;;;14.70;58.50;;;;;;5108687;28;20517;-44
2023/01/30 02:47:32;;;;;;;5.03;4.07;;;14.70;58.60;;;;;;5107519;28;20626;-44
2023/01/30 02:50:21;;;;;;;4.50;4.00;;;14.70;58.70;;;;;;5096601;27;20291;-44
2023/01/30 02:52:50;;;;;;;5.67;4.20;;;14.70;58.60;;;;;;5091631;27;20600;-44
2023/01/30 02:55:32;;;;;;;4.80;4.40;;;14.60;58.60;;;;;;5094182;28;20196;-44
2023/01/30 02:58:04;;;;;;;5.00;4.50;;;14.70;58.80;;;;;;5109299;28;20193;-44
2023/01/30 03:01:13;;;;;;;6.40;4.80;;;14.70;58.70;;;;;;5101179;28;20212;-45
2023/01/30 03:04:17;;;;;;;5.93;4.33;;;14.70;59.20;;;;;;5113002;27;20214;-44
2023/01/30 03:07:27;;;;;;;5.63;4.17;;;14.70;58.70;;;;;;5106481;27;20220;-45
2023/01/30 03:10:18;;;;;;;4.73;3.47;;;14.70;58.70;;;;;;5066019;28;20219;-44
2023/01/30 03:13:25;;;;;;;5.43;4.50;;;14.70;58.70;;;;;;5109810;27;20193;-45
2023/01/30 03:16:22;;;;;;;4.97;4.47;;;14.70;58.80;;;;;;5101994;28;20184;-44
2023/01/30 03:18:52;;;;;;;4.30;3.83;;;14.60;58.80;;;;;;5109527;28;20546;-44
2023/01/30 03:21:22;;;;;;;5.13;4.10;;;14.70;58.90;;;;;;5109170;28;20192;-44
2023/01/30 03:23:50;;;;;;;4.10;3.70;;;14.70;58.90;;;;;;5116462;27;20201;-45
2023/01/30 03:26:24;;;;;;;5.67;4.13;;;14.70;58.90;;;;;;5106195;28;20228;-44
2023/01/30 03:28:53;;;;;;;4.63;4.23;;;14.70;59.00;;;;;;5108109;28;20203;-44
2023/01/30 03:31:24;;;;;;;4.80;4.13;;;14.70;59.00;;;;;;5069739;28;20706;-45
2023/01/30 03:33:55;;;;;;;4.40;4.00;;;14.70;58.90;;;;;;5083278;28;20204;-45
2023/01/30 03:36:26;;;;;;;5.47;3.93;;;14.70;58.90;;;;;;5086859;28;20204;-45
2023/01/30 03:38:54;;;;;;;4.93;4.07;;;14.60;58.90;;;;;;5086462;28;20585;-45
2023/01/30 03:41:24;;;;;;;4.77;4.37;;;14.70;58.90;;;;;;5089670;28;20185;-45
2023/01/30 03:43:52;;;;;;;5.77;4.10;;;14.70;59.00;;;;;;5071499;28;20618;-44
2023/01/30 03:46:21;;;;;;;5.77;5.13;;;14.70;58.90;;;;;;5078283;28;20262;-44
2023/01/30 03:48:49;;;;;;;4.10;3.70;;;14.70;58.90;;;;;;5089384;28;20199;-45
2023/01/30 03:51:19;;;;;;;4.40;4.00;;;14.60;59.00;;;;;;5086006;28;20192;-45
2023/01/30 03:53:50;;;;;;;5.03;4.00;;;14.70;59.00;;;;;;5071715;28;20200;-45
2023/01/30 03:56:24;;;;;;;4.83;4.00;;;14.70;58.90;;;;;;5070297;28;20196;-44
2023/01/30 03:58:52;;;;;;;5.47;4.10;;;14.70;58.90;;;;;;5089538;28;20204;-45
2023/01/30 04:01:22;;;;;;;5.23;4.07;;;14.60;58.90;;;;;;5085118;28;20244;-44
2023/01/30 04:03:53;;;;;;;5.07;4.30;;;14.70;59.00;;;;;;5095225;28;20200;-44
2023/01/30 04:06:23;;;;;;;7.27;3.97;;;14.70;58.90;;;;;;5063137;28;20308;-45
2023/01/30 04:08:54;;;;;;;4.10;3.27;;;14.70;58.90;;;;;;5069323;28;20256;-44
2023/01/30 04:11:24;;;;;;;4.97;4.00;;;14.60;58.90;;;;;;5088719;28;20197;-45
2023/01/30 04:13:54;;;;;;;3.90;3.60;;;14.60;59.00;;;;;;5084621;28;20665;-44
2023/01/30 04:16:26;;;;;;;4.07;3.67;;;14.60;59.00;;;;;;5086506;28;20201;-45
2023/01/30 04:18:55;;;;;;;6.00;3.90;;;14.70;59.10;;;;;;5092985;28;20250;-45
2023/01/30 04:21:27;;;;;;;5.80;4.17;;;14.70;59.00;;;;;;5088773;28;20504;-45
2023/01/30 04:23:59;;;;;;;3.87;3.13;;;14.60;59.00;;;;;;5070831;28;20189;-45
2023/01/30 04:26:28;;;;;;;4.20;3.73;;;14.70;59.00;;;;;;5064222;28;20240;-45
2023/01/30 04:28:57;;;;;;;4.00;3.70;;;14.60;59.10;;;;;;5070058;28;20189;-45
2023/01/30 04:31:25;;;;;;;3.57;3.20;;;14.60;59.00;;;;;;5088979;28;20632;-44
2023/01/30 04:33:55;;;;;;;3.97;3.40;;;14.60;59.00;;;;;;5095830;28;20200;-44
2023/01/30 04:36:32;;;;;;;3.60;3.30;;;14.60;59.00;;;;;;5103029;28;20257;-44
2023/01/30 04:39:02;;;;;;;4.03;3.63;;;14.70;59.10;;;;;;5102398;27;20195;-44
2023/01/30 04:41:32;;;;;;;4.07;3.57;;;14.60;59.00;;;;;;5091484;28;20208;-44
2023/01/30 04:44:03;;;;;;;4.37;3.97;;;14.60;59.00;;;;;;5108560;28;20207;-44
2023/01/30 04:46:39;;;;;;;4.00;3.70;;;14.70;59.10;;;;;;5105275;28;20204;-44
2023/01/30 04:49:10;;;;;;;3.73;3.40;;;14.60;59.00;;;;;;5108410;27;20216;-44
2023/01/30 04:51:41;;;;;;;3.30;3.00;;;14.70;59.10;;;;;;5092522;27;20192;-44
2023/01/30 04:54:12;;;;;;;4.60;4.20;;;14.60;59.10;;;;;;5092697;28;20565;-44
2023/01/30 04:56:42;;;;;;;3.87;3.57;;;14.60;59.10;;;;;;5104718;28;20207;-44
2023/01/30 04:59:11;;;;;;;4.20;3.13;;;14.60;59.10;;;;;;5107962;28;20208;-45
2023/01/30 05:01:44;;;;;;;3.77;3.10;;;14.60;59.20;;;;;;5087009;28;20212;-45
2023/01/30 05:04:17;;;;;;;4.03;3.73;;;14.60;59.20;;;;;;5116022;27;20204;-45
2023/01/30 05:06:47;;;;;;;3.77;3.37;;;14.60;59.20;;;;;;5106237;28;20232;-45
2023/01/30 05:09:20;;;;;;;4.03;3.70;;;14.60;59.20;;;;;;5103443;28;20609;-44
2023/01/30 05:11:50;;;;;;;3.27;2.93;;;14.60;59.20;;;;;;5106437;28;20193;-45
2023/01/30 05:14:22;;;;;;;3.10;2.80;;;14.60;59.20;;;;;;5103160;28;20215;-44
2023/01/30 05:16:50;;;;;;;3.57;2.90;;;14.60;59.20;;;;;;5112506;27;20192;-44
2023/01/30 05:19:19;;;;;;;3.87;3.47;;;14.60;59.20;;;;;;5107766;28;20231;-44
2023/01/30 05:21:54;;;;;;;4.03;3.60;;;14.60;59.20;;;;;;5107945;28;20202;-44
2023/01/30 05:24:24;;;;;;;3.30;3.00;;;14.60;59.20;;;;;;5106855;28;20203;-44
2023/01/30 05:26:52;;;;;;;3.20;2.90;;;14.60;59.20;;;;;;5104176;28;20228;-44
2023/01/30 05:29:22;;;;;;;3.00;2.80;;;14.60;59.20;;;;;;5108477;28;20204;-44
2023/01/30 05:31:53;;;;;;;3.47;3.17;;;14.60;59.20;;;;;;5112631;27;20288;-44
2023/01/30 05:34:23;;;;;;;3.70;3.40;;;14.60;59.20;;;;;;5090722;28;20204;-44
2023/01/30 05:36:52;;;;;;;3.20;2.90;;;14.60;59.20;;;;;;5112379;28;20698;-45
2023/01/30 05:39:19;;;;;;;3.20;2.90;;;14.60;59.20;;;;;;5108666;28;20218;-44
2023/01/30 05:41:48;;;;;;;3.03;2.73;;;14.70;59.30;;;;;;5107947;28;20196;-45
2023/01/30 05:44:20;;;;;;;5.17;3.70;;;14.60;59.30;;;;;;5108243;28;20196;-45
2023/01/30 05:46:46;;;;;;;3.13;2.70;;;14.60;59.30;;;;;;5116579;28;20200;-44
2023/01/30 05:49:17;;;;;;;3.40;3.10;;;14.60;59.40;;;;;;5089001;28;20321;-45
2023/01/30 05:51:52;;;;;;;3.60;3.30;;;14.60;59.30;;;;;;5108983;28;20184;-44
2023/01/30 05:54:22;;;;;;;3.23;2.93;;;14.60;59.30;;;;;;5108023;28;20199;-44
2023/01/30 05:56:54;;;;;;;3.37;2.97;;;14.60;59.30;;;;;;5121628;28;20253;-44
2023/01/30 05:59:26;;;;;;;3.37;2.57;;;14.60;59.20;;;;;;5112862;28;20192;-44
2023/01/30 06:01:56;;;;;;;3.37;2.60;;;14.60;59.20;;;;;;5107607;28;20657;-44
2023/01/30 06:04:27;;;;;;;3.37;2.87;;;14.60;59.20;;;;;;5089322;28;20192;-44
2023/01/30 06:06:55;;;;;;;2.90;2.60;;;14.60;59.20;;;;;;5109832;28;20572;-44
2023/01/30 06:09:27;;;;;;;3.47;2.97;;;14.60;59.20;;;;;;5109848;28;20192;-45
2023/01/30 06:11:57;;;;;;;2.50;2.30;;;14.60;59.20;;;;;;5107752;28;20493;-45
2023/01/30 06:14:39;;;;;;;3.00;2.70;;;14.60;59.20;;;;;;5089525;28;20918;-44
2023/01/30 06:17:11;;;;;;;2.70;2.27;;;14.60;59.30;;;;;;5093349;28;20224;-45
2023/01/30 06:19:41;;;;;;;4.63;2.80;;;14.60;59.20;;;;;;5103314;28;20197;-44
2023/01/30 06:22:12;;;;;;;5.87;3.23;;;14.60;59.20;;;;;;5109010;28;20195;-45
2023/01/30 06:24:41;;;;;;;4.33;2.33;;;14.60;59.20;;;;;;5083948;28;20200;-45
2023/01/30 06:27:10;;;;;;;2.60;2.30;;;14.60;59.20;;;;;;5110580;28;20531;-44
2023/01/30 06:29:42;;;;;;;3.70;3.13;;;14.60;59.20;;;;;;5112557;27;20225;-44
2023/01/30 06:32:13;;;;;;;3.33;2.73;;;14.60;59.20;;;;;;5112587;27;20232;-44
2023/01/30 06:34:53;;;;;;;3.03;2.63;;;14.60;59.20;;;;;;5113819;27;20196;-44
2023/01/30 06:37:22;;;;;;;2.77;2.20;;;14.60;59.20;;;;;;5096684;28;20227;-44
2023/01/30 06:39:54;;;;;;;5.20;2.70;;;14.60;59.20;;;;;;5109825;27;20625;-44
2023/01/30 06:42:21;;;;;;;3.70;2.10;;;14.60;59.20;;;;;;5116663;27;20185;-45
2023/01/30 06:44:50;;;;;;;2.63;2.40;;;14.60;59.30;;;;;;5103370;27;20223;-44
2023/01/30 06:47:21;;;;;;;3.10;2.33;;;14.60;59.30;;;;;;5093373;28;20224;-45
2023/01/30 06:49:50;;;;;;;3.10;2.10;;;14.60;59.20;;;;;;5107095;27;20205;-44
2023/01/30 06:52:19;;;;;;;3.67;2.53;;;14.60;59.30;;;;;;5105936;28;20188;-44
2023/01/30 06:54:49;;;;;;;3.20;2.03;;;14.60;59.40;;;;;;5111064;27;20188;-45
2023/01/30 06:57:20;;;;;;;4.00;2.37;;;14.60;59.50;;;;;;5093471;28;20219;-44
2023/01/30 06:59:51;;;;;;;3.13;2.33;;;14.60;59.50;;;;;;5104666;27;20200;-44
2023/01/30 07:02:21;;;;;;;3.80;2.87;;;14.60;59.50;;;;;;5100307;28;20220;-44
2023/01/30 07:04:49;;;;;;;4.73;2.23;;;14.60;59.50;;;;;;5107303;27;20196;-44
2023/01/30 07:07:25;;;;;;;3.07;2.30;;;14.50;59.50;;;;;;5111984;27;20273;-44
2023/01/30 07:09:56;;;;;;;3.93;2.53;;;14.60;59.40;;;;;;5107461;27;20764;-44
2023/01/30 07:12:37;;;;;;;6.07;3.17;;;14.60;59.50;;;;;;5091002;28;20216;-45
2023/01/30 07:15:08;;;;;;;3.17;2.07;;;14.60;59.40;;;;;;5117591;27;20245;-45
2023/01/30 07:17:43;;;;;;;3.43;2.00;;;14.50;59.40;;;;;;5094571;28;20201;-44
2023/01/30 07:20:14;;;;;;;4.60;2.60;;;14.60;59.50;;;;;;5104836;27;20229;-45
2023/01/30 07:22:54;;;;;;;4.97;2.83;;;14.60;59.50;;;;;;5077268;28;20236;-44
2023/01/30 07:25:29;;;;;;;128.23;25.90;;;14.50;60.60;;;;;;5087607;28;20215;-44
2023/01/30 07:28:00;;;;;;;171.90;35.57;;;14.70;62.10;;;;;;5075276;28;20205;-44
2023/01/30 07:30:28;;;;;;;138.17;29.67;;;14.80;63.40;;;;;;5101654;28;20502;-45
2023/01/30 07:33:03;;;;;;;128.13;27.07;;;15.00;64.00;;;;;;5120570;27;20696;-45
2023/01/30 07:35:54;;;;;;;115.60;23.80;;;15.10;63.40;;;;;;5083939;28;20633;-44
2023/01/30 07:38:27;;;;;;;95.73;21.83;;;15.40;63.70;;;;;;5089165;28;20208;-45
2023/01/30 07:41:00;;;;;;;101.00;22.73;;;15.60;62.90;;;;;;5118110;27;20758;-45
2023/01/30 07:43:29;;;;;;;82.63;20.27;;;15.80;63.30;;;;;;5093600;28;20625;-45
2023/01/30 07:46:00;;;;;;;83.00;18.50;;;16.10;62.20;;;;;;5103025;28;20243;-46
2023/01/30 07:48:29;;;;;;;71.10;17.40;;;16.30;61.70;;;;;;5098011;28;20620;-44
2023/01/30 07:51:00;;;;;;;63.63;17.47;;;16.50;61.20;;;;;;5101366;27;20195;-46
2023/01/30 07:53:33;;;;;;;56.30;15.33;;;16.70;60.80;;;;;;5118675;27;20694;-46
2023/01/30 07:56:07;;;;;;;47.77;13.57;;;16.90;60.30;;;;;;5109761;27;20227;-45
2023/01/30 07:58:40;;;;;;;54.77;13.30;;;17.10;59.80;;;;;;5083889;27;20245;-45
2023/01/30 08:01:10;;;;;;;42.10;12.30;;;17.30;59.40;;;;;;5106482;27;20318;-45
2023/01/30 08:03:44;;;;;;;36.97;10.20;;;17.50;59.10;;;;;;5112058;27;20184;-45
2023/01/30 08:06:15;;;;;;;36.17;10.97;;;17.70;58.80;;;;;;5093366;28;20646;-45
2023/01/30 08:08:46;;;;;;;35.87;9.77;;;17.80;58.50;;;;;;5094979;27;20199;-45
2023/01/30 08:11:18;;;;;;;31.70;9.13;;;18.00;58.40;;;;;;5108369;27;20196;-45
2023/01/30 08:13:50;;;;;;;28.30;8.87;;;18.20;58.10;;;;;;5109803;27;20226;-46
2023/01/30 08:16:32;;;;;;;22.63;8.10;;;18.40;57.80;;;;;;5105842;28;20249;-45
2023/01/30 08:19:05;;;;;;;19.70;6.53;;;18.50;57.30;;;;;;5113524;27;20185;-45
2023/01/30 08:21:38;;;;;;;21.47;6.80;;;18.70;56.90;;;;;;5096218;27;20598;-45
2023/01/30 08:24:11;;;;;;;16.20;6.03;;;18.90;56.50;;;;;;5107602;28;20191;-45
2023/01/30 08:26:46;;;;;;;18.40;5.90;;;19.10;56.20;;;;;;5108788;27;20196;-45
2023/01/30 08:29:30;;;;;;;16.07;5.53;;;19.20;55.80;;;;;;5097005;27;20223;-45
2023/01/30 08:32:01;;;;;;;13.50;5.03;;;19.40;55.60;;;;;;5107823;28;20220;-45
2023/01/30 08:34:36;;;;;;;11.80;4.20;;;19.50;55.30;;;;;;5107543;28;20286;-45
2023/01/30 08:37:08;;;;;;;12.20;4.57;;;19.60;55.10;;;;;;5109421;27;20211;-48
2023/01/30 08:39:38;;;;;;;12.07;3.80;;;19.70;55.00;;;;;;5108315;28;20212;-49
2023/01/30 08:42:07;;;;;;;12.70;4.10;;;19.80;54.80;;;;;;5109517;27;20534;-48
2023/01/30 08:44:35;;;;;;;12.47;3.70;;;19.90;54.50;;;;;;5113779;27;20203;-48
2023/01/30 08:47:07;;;;;;;10.57;3.67;;;20.10;54.40;;;;;;5104119;27;20219;-45
2023/01/30 08:49:38;;;;;;;10.93;3.47;;;20.20;54.40;;;;;;5107829;27;20205;-46
2023/01/30 08:52:08;;;;;;;9.57;3.30;;;20.30;54.10;;;;;;5108301;28;20727;-48
2023/01/30 08:54:38;;;;;;;7.57;2.67;;;20.40;53.80;;;;;;5098725;28;20521;-48
2023/01/30 08:57:09;;;;;;;9.93;3.10;;;20.50;53.70;;;;;;5109209;27;20207;-48
2023/01/30 08:59:41;;;;;;;6.50;2.77;;;20.50;53.50;;;;;;5112881;27;20195;-47
2023/01/30 09:02:15;;;;;;;7.97;3.13;;;20.60;53.30;;;;;;5110574;27;20220;-45
2023/01/30 09:04:47;;;;;;;7.53;2.93;;;20.80;53.40;;;;;;5105742;28;20204;-45
2023/01/30 09:07:19;;;;;;;8.03;2.80;;;20.80;53.20;;;;;;5107866;28;20648;-48
2023/01/30 09:09:47;;;;;;;6.80;2.60;;;20.90;53.20;;;;;;5097779;28;20184;-47
2023/01/30 09:12:19;;;;;;;5.90;2.40;;;20.90;53.00;;;;;;5106925;28;20196;-45
2023/01/30 09:14:51;;;;;;;5.63;2.50;;;21.00;53.00;;;;;;5107788;27;20208;-45
2023/01/30 09:17:24;;;;;;;5.97;2.30;;;21.00;52.80;;;;;;5107786;28;20199;-47
2023/01/30 09:19:55;;;;;;;4.33;2.03;;;21.10;52.80;;;;;;5108161;28;20558;-47
2023/01/30 09:22:25;;;;;;;7.73;2.87;;;21.10;52.70;;;;;;5085167;28;20205;-47
2023/01/30 09:24:58;;;;;;;6.63;2.00;;;21.20;52.70;;;;;;5107420;28;20414;-47
2023/01/30 09:27:30;;;;;;;4.80;2.00;;;21.20;52.40;;;;;;5108054;28;20216;-47
2023/01/30 09:29:57;;;;;;;4.83;1.80;;;21.30;52.40;;;;;;5115026;28;20250;-47
2023/01/30 09:32:27;;;;;;;3.57;1.93;;;21.40;52.20;;;;;;5088829;28;20252;-47
2023/01/30 09:34:55;;;;;;;7.53;2.37;;;21.50;52.10;;;;;;5087275;28;20295;-47
2023/01/30 09:37:27;;;;;;;6.10;2.07;;;21.50;51.90;;;;;;5087689;28;20193;-45
2023/01/30 09:39:57;;;;;;;5.20;1.70;;;21.50;51.80;;;;;;5083604;28;20217;-45
2023/01/30 09:43:04;;;;;;;6.63;1.87;;;21.60;51.80;;;;;;5085846;28;20196;-45
2023/01/30 09:45:48;;;;;;;4.70;2.17;;;21.70;52.30;;;;;;5075881;28;20749;-47
2023/01/30 09:48:44;;;;;;;4.50;2.07;;;21.70;51.40;;;;;;5084756;28;20215;-47
2023/01/30 09:51:42;;;;;;;3.57;1.73;;;21.80;51.50;;;;;;5067252;28;20548;-47
2023/01/30 09:54:39;;;;;;;6.37;2.27;;;21.80;51.60;;;;;;5090513;28;20196;-46
2023/01/30 09:57:26;;;;;;;4.93;2.30;;;21.80;50.40;;;;;;5096547;28;20201;-44
2023/01/30 10:00:30;;;;;;;6.57;2.20;;;21.70;49.00;;;;;;5087613;28;20603;-45
2023/01/30 10:03:27;;;;;;;7.17;2.27;;;21.40;49.20;;;;;;5087557;28;20215;-45
2023/01/30 10:06:06;;;;;;;5.57;2.00;;;21.30;51.10;;;;;;5090406;28;20242;-45
2023/01/30 10:08:58;;;;;;;6.40;2.13;;;21.40;52.00;;;;;;5088553;28;20354;-45
2023/01/30 10:11:57;;;;;;;3.33;1.50;;;21.50;51.80;;;;;;5079018;28;20181;-45
2023/01/30 10:15:05;;;;;;;5.07;1.80;;;21.60;51.60;;;;;;5075949;28;20225;-46
2023/01/30 10:18:28;;;;;;;4.73;2.13;;;21.60;51.40;;;;;;5090904;28;20196;-45
2023/01/30 10:21:25;;;;;;;5.03;1.60;;;21.70;51.40;;;;;;5039662;28;20722;-49
2023/01/30 10:24:25;;;;;;;3.83;1.70;;;21.80;51.30;;;;;;5018352;28;20205;-48
2023/01/30 10:26:54;;;;;;;4.77;1.83;;;21.90;51.10;;;;;;5093782;28;20265;-48
2023/01/30 10:29:36;;;;;;;4.63;2.07;;;21.90;50.80;;;;;;5089207;28;20622;-48
2023/01/30 10:33:10;;;;;;;4.20;1.70;;;22.00;50.10;;;;;;5071648;28;20685;-49
2023/01/30 10:35:43;;;;;;;5.50;1.73;;;22.10;50.60;;;;;;4991751;28;20722;-46
2023/01/30 10:38:28;;;;;;;3.90;1.70;;;22.20;50.30;;;;;;4993242;28;20636;-46
2023/01/30 10:41:41;;;;;;;4.77;1.80;;;22.30;50.60;;;;;;5006010;28;20219;-46
2023/01/30 10:44:17;;;;;;;4.27;1.93;;;22.30;50.10;;;;;;4990220;28;20203;-46
2023/01/30 10:47:26;;;;;;;4.87;1.93;;;22.40;49.90;;;;;;4989315;28;20203;-48
2023/01/30 10:50:25;;;;;;;6.10;2.00;;;22.50;50.00;;;;;;4990541;28;20219;-49
2023/01/30 10:53:36;;;;;;;5.77;1.83;;;22.60;49.70;;;;;;4997878;28;20188;-49
2023/01/30 10:56:42;;;;;;;4.40;1.90;;;22.70;49.70;;;;;;4978123;28;20762;-46
2023/01/30 10:59:55;;;;;;;4.00;1.50;;;22.70;49.40;;;;;;5020941;28;20553;-46
2023/01/30 11:02:58;;;;;;;4.63;2.00;;;22.70;48.80;;;;;;5003411;28;20624;-45
2023/01/30 11:05:49;;;;;;;4.83;1.93;;;22.80;48.90;;;;;;5034363;28;20201;-45
2023/01/30 11:08:30;;;;;;;4.60;1.67;;;22.90;49.10;;;;;;5079233;28;20204;-45
2023/01/30 11:11:00;;;;;;;3.87;1.80;;;22.90;49.10;;;;;;5090177;28;20188;-44
2023/01/30 11:13:41;;;;;;;3.27;1.60;;;22.90;48.90;;;;;;5075402;28;20257;-45
2023/01/30 11:16:15;;;;;;;4.57;1.73;;;22.90;49.20;;;;;;5085221;28;20208;-45
2023/01/30 11:18:51;;;;;;;5.03;1.87;;;22.90;48.10;;;;;;5087950;28;20250;-45
2023/01/30 11:21:50;;;;;;;4.20;2.00;;;22.70;47.50;;;;;;5070930;28;20194;-45
2023/01/30 11:24:28;;;;;;;6.10;1.83;;;22.50;47.60;;;;;;5072214;28;20786;-45
2023/01/30 11:27:30;;;;;;;5.40;1.70;;;22.30;48.00;;;;;;5072900;28;20231;-44
2023/01/30 11:30:17;;;;;;;5.10;1.97;;;22.10;48.10;;;;;;5085371;28;20208;-45
2023/01/30 11:32:49;;;;;;;5.47;1.93;;;22.00;47.80;;;;;;5101189;28;20232;-46
2023/01/30 11:36:01;;;;;;;5.57;2.10;;;21.80;47.70;;;;;;5094944;28;20211;-47
2023/01/30 11:38:34;;;;;;;3.97;1.77;;;21.70;48.60;;;;;;5103443;27;20238;-48
2023/01/30 11:41:21;;;;;;;4.10;1.87;;;21.60;48.50;;;;;;5114116;27;20224;-47
2023/01/30 11:44:09;;;;;;;4.70;1.60;;;21.50;48.30;;;;;;5092209;28;20576;-47
2023/01/30 11:46:39;;;;;;;3.47;1.53;;;21.50;48.80;;;;;;5101177;28;20585;-45
2023/01/30 11:49:23;;;;;;;5.13;1.90;;;21.30;48.80;;;;;;5102539;27;20200;-45
2023/01/30 11:52:06;;;;;;;5.03;1.90;;;21.30;49.00;;;;;;5078258;28;20261;-44
2023/01/30 11:54:44;;;;;;;6.33;1.87;;;21.20;48.80;;;;;;5108964;27;20482;-44
2023/01/30 11:57:16;;;;;;;6.63;2.27;;;21.00;47.70;;;;;;5074691;28;20188;-46
2023/01/30 11:59:59;;;;;;;4.80;1.90;;;20.90;47.50;;;;;;5092186;28;20621;-46
2023/01/30 12:02:53;;;;;;;4.73;1.70;;;20.90;48.80;;;;;;5085085;28;20192;-49
2023/01/30 12:05:33;;;;;;;3.20;1.50;;;21.00;49.20;;;;;;5099220;28;20197;-46
2023/01/30 12:08:20;;;;;;;6.10;1.83;;;21.20;49.30;;;;;;5096861;27;20220;-46
2023/01/30 12:11:17;;;;;;;3.73;1.70;;;21.30;49.40;;;;;;5107725;27;20249;-45
2023/01/30 12:13:50;;;;;;;261.27;141.90;;;21.40;49.40;;;;;;5091850;28;20659;-45
2023/01/30 12:16:34;;;;;;;15.40;8.67;;;21.60;49.10;;;;;;5097360;28;20578;-48
2023/01/30 12:19:35;;;;;;;23.60;12.00;;;21.70;48.30;;;;;;5109354;27;20237;-47
2023/01/30 12:22:40;;;;;;;21.47;9.60;;;21.60;48.80;;;;;;5079558;28;20223;-48
2023/01/30 12:25:21;;;;;;;19.47;9.43;;;21.50;48.50;;;;;;5107227;27;20203;-45
2023/01/30 12:28:12;;;;;;;16.60;8.13;;;21.40;48.90;;;;;;5105074;28;20699;-45
2023/01/30 12:30:55;;;;;;;16.03;8.03;;;21.30;49.00;;;;;;5091681;28;20196;-47
2023/01/30 12:33:31;;;;;;;13.30;7.20;;;21.20;49.10;;;;;;5107966;28;20577;-47
2023/01/30 12:36:33;;;;;;;12.37;6.20;;;21.10;49.40;;;;;;5090789;28;20624;-48
2023/01/30 12:39:13;;;;;;;12.73;6.87;;;21.00;49.40;;;;;;5102416;28;20201;-47
2023/01/30 12:42:21;;;;;;;11.90;5.47;;;21.00;49.40;;;;;;5114706;27;20256;-45
2023/01/30 12:45:22;;;;;;;9.90;5.37;;;20.90;49.20;;;;;;5111123;27;20207;-45
2023/01/30 12:48:36;;;;;;;10.97;5.20;;;20.90;49.50;;;;;;5109131;27;20208;-47
2023/01/30 12:51:39;;;;;;;9.63;5.00;;;20.80;49.70;;;;;;5064696;28;20538;-47
2023/01/30 12:54:27;;;;;;;8.97;4.17;;;20.80;50.00;;;;;;5105159;27;20196;-47
2023/01/30 12:57:13;;;;;;;8.10;3.97;;;20.70;49.20;;;;;;5103772;28;20196;-47
2023/01/30 13:00:05;;;;;;;9.43;3.97;;;20.70;49.20;;;;;;5110389;27;20504;-48
2023/01/30 13:03:03;;;;;;;9.20;4.00;;;20.60;49.30;;;;;;5102938;27;20652;-47
2023/01/30 13:05:36;;;;;;;9.23;3.30;;;20.50;49.30;;;;;;5110101;27;20200;-49
2023/01/30 13:08:59;;;;;;;8.17;3.47;;;20.50;49.90;;;;;;5093300;28;20318;-47
2023/01/30 13:11:49;;;;;;;10.27;3.60;;;20.50;49.90;;;;;;5004745;28;20192;-48
2023/01/30 13:14:40;;;;;;;8.57;2.77;;;20.50;49.80;;;;;;4990516;28;20274;-48
2023/01/30 13:17:48;;;;;;;6.63;2.63;;;20.40;50.10;;;;;;4994111;28;20200;-44
2023/01/30 13:20:39;;;;;;;7.10;2.67;;;20.40;49.60;;;;;;5087457;28;20571;-43
2023/01/30 13:23:48;;;;;;;4.37;2.27;;;20.30;49.60;;;;;;5108743;28;20617;-45
2023/01/30 13:26:26;;;;;;;6.17;2.63;;;20.30;49.70;;;;;;5107424;28;20203;-48
2023/01/30 13:29:19;;;;;;;10.70;3.03;;;20.20;44.60;;;;;;5093089;28;20203;-47
2023/01/30 13:32:05;;;;;;;8.73;2.37;;;19.90;46.10;;;;;;5088261;27;20219;-45
2023/01/30 13:34:38;;;;;;;6.53;2.67;;;19.60;46.10;;;;;;5106974;28;20200;-45
2023/01/30 13:37:19;;;;;;;9.63;2.80;;;19.40;46.80;;;;;;5105216;28;20196;-43
2023/01/30 13:40:07;;;;;;;8.87;2.90;;;19.20;47.30;;;;;;5096756;27;20215;-44
2023/01/30 13:42:59;;;;;;;7.20;2.20;;;19.00;47.50;;;;;;5109107;28;20656;-47
2023/01/30 13:45:39;;;;;;;6.70;2.50;;;18.90;48.40;;;;;;5104456;27;20188;-43
2023/01/30 13:48:22;;;;;;;13.20;2.90;;;18.70;48.30;;;;;;5106105;27;20215;-44
2023/01/30 13:51:24;;;;;;;8.60;2.80;;;18.60;48.40;;;;;;5094352;27;20224;-44
2023/01/30 13:54:16;;;;;;;8.13;2.17;;;18.50;49.00;;;;;;5084708;28;20203;-44